createdAt,value
2022-08-16T00:00:22.540Z,97.30
2022-08-16T00:02:52.029Z,97.30
2022-08-16T00:05:20.302Z,97.30
2022-08-16T00:07:48.332Z,97.40
2022-08-16T00:10:25.128Z,97.30
2022-08-16T00:12:54.049Z,97.30
2022-08-16T00:15:51.342Z,97.40
2022-08-16T00:18:17.476Z,97.40
2022-08-16T00:20:47.128Z,97.40
2022-08-16T00:23:15.817Z,97.40
2022-08-16T00:26:33.701Z,97.30
2022-08-16T00:28:32.273Z,97.30
2022-08-16T00:31:01.114Z,97.30
2022-08-16T00:33:29.824Z,97.20
2022-08-16T00:35:58.465Z,97.30
2022-08-16T00:38:41.262Z,97.20
2022-08-16T00:41:11.462Z,97.30
2022-08-16T00:43:43.175Z,97.30
2022-08-16T00:46:34.005Z,97.30
2022-08-16T00:48:59.170Z,97.30
2022-08-16T00:51:29.435Z,97.20
2022-08-16T00:53:57.628Z,97.30
2022-08-16T00:56:56.466Z,97.20
2022-08-16T00:59:16.003Z,97.20
2022-08-16T01:01:44.564Z,97.20
2022-08-16T01:04:29.092Z,97.10
2022-08-16T01:07:02.800Z,97.10
2022-08-16T01:09:33.656Z,97.10
2022-08-16T01:12:03.072Z,97.10
2022-08-16T01:14:38.394Z,97.20
2022-08-16T01:17:08.242Z,97.30
2022-08-16T01:19:40.810Z,97.20
2022-08-16T01:22:49.566Z,97.30
2022-08-16T01:25:21.770Z,97.30
2022-08-16T01:27:51.834Z,97.40
2022-08-16T01:30:26.629Z,97.40
2022-08-16T01:33:01.580Z,97.40
2022-08-16T01:36:09.517Z,97.30
2022-08-16T01:38:41.014Z,97.30
2022-08-16T01:41:19.845Z,97.20
2022-08-16T01:43:54.092Z,97.20
2022-08-16T01:46:37.409Z,97.10
2022-08-16T01:49:11.473Z,97.20
2022-08-16T01:51:40.864Z,97.20
2022-08-16T01:54:13.153Z,97.10
2022-08-16T01:56:41.843Z,97.10
2022-08-16T01:59:16.046Z,97.10
2022-08-16T02:01:49.839Z,97.00
2022-08-16T02:04:49.474Z,97.10
2022-08-16T02:07:11.408Z,97.00
2022-08-16T02:09:39.825Z,97.00
2022-08-16T02:12:50.071Z,97.10
2022-08-16T02:14:57.784Z,97.10
2022-08-16T02:17:28.461Z,97.10
2022-08-16T02:19:59.094Z,97.10
2022-08-16T02:22:34.412Z,97.00
2022-08-16T02:25:08.223Z,97.10
2022-08-16T02:27:37.889Z,97.10
2022-08-16T02:30:08.333Z,97.10
2022-08-16T02:32:49.096Z,97.10
2022-08-16T02:35:23.305Z,97.10
2022-08-16T02:37:53.267Z,97.10
2022-08-16T02:40:24.013Z,97.10
2022-08-16T02:42:54.331Z,97.10
2022-08-16T02:45:24.793Z,97.10
2022-08-16T02:48:01.501Z,97.10
2022-08-16T02:50:54.573Z,97.20
2022-08-16T02:53:29.230Z,97.20
2022-08-16T02:55:57.898Z,97.10
2022-08-16T02:58:27.239Z,97.10
2022-08-16T03:00:57.859Z,97.20
2022-08-16T03:03:27.003Z,97.20
2022-08-16T03:06:41.338Z,97.30
2022-08-16T03:09:08.839Z,97.30
2022-08-16T03:11:41.283Z,97.30
2022-08-16T03:14:08.948Z,97.40
2022-08-16T03:16:58.484Z,97.40
2022-08-16T03:19:48.068Z,97.40
2022-08-16T03:22:19.318Z,97.50
2022-08-16T03:24:57.626Z,97.50
2022-08-16T03:27:30.754Z,97.50
2022-08-16T03:30:01.197Z,97.60
2022-08-16T03:32:30.028Z,97.60
2022-08-16T03:34:57.598Z,97.60
2022-08-16T03:37:25.241Z,97.70
2022-08-16T03:39:56.423Z,97.70
2022-08-16T03:42:24.905Z,97.70
2022-08-16T03:45:03.832Z,97.70
2022-08-16T03:47:34.196Z,97.80
2022-08-16T03:50:02.973Z,97.70
2022-08-16T03:52:31.920Z,97.80
2022-08-16T03:55:00.119Z,97.90
2022-08-16T03:57:31.867Z,98.00
2022-08-16T04:00:35.848Z,98.10
2022-08-16T04:03:07.716Z,98.10
2022-08-16T04:05:37.766Z,98.20
2022-08-16T04:08:23.036Z,98.20
2022-08-16T04:10:53.655Z,98.20
2022-08-16T04:14:01.798Z,98.30
2022-08-16T04:16:26.622Z,98.30
2022-08-16T04:19:01.370Z,98.40
2022-08-16T04:21:35.064Z,98.50
2022-08-16T04:24:03.931Z,98.50
2022-08-16T04:26:36.002Z,98.50
2022-08-16T04:29:16.811Z,98.70
2022-08-16T04:31:56.785Z,98.70
2022-08-16T04:34:27.706Z,98.80
2022-08-16T04:36:56.701Z,98.90
2022-08-16T04:39:45.830Z,98.90
2022-08-16T04:42:13.105Z,99.00
2022-08-16T04:44:53.434Z,99.00
2022-08-16T04:47:24.483Z,99.00
2022-08-16T04:49:53.189Z,99.10
2022-08-16T04:52:33.279Z,99.20
2022-08-16T04:55:03.445Z,99.30
2022-08-16T04:57:31.229Z,99.20
2022-08-16T04:59:58.849Z,99.30
2022-08-16T05:02:46.962Z,99.30
2022-08-16T05:05:23.644Z,99.50
2022-08-16T05:07:58.334Z,99.50
2022-08-16T05:10:29.608Z,99.40
2022-08-16T05:12:58.249Z,99.50
2022-08-16T05:15:26.738Z,99.50
2022-08-16T05:17:58.758Z,99.60
2022-08-16T05:20:38.712Z,99.60
2022-08-16T05:23:13.636Z,99.60
2022-08-16T05:25:48.442Z,99.50
2022-08-16T05:28:17.550Z,99.70
2022-08-16T05:30:50.534Z,99.70
2022-08-16T05:33:18.497Z,99.70
2022-08-16T05:35:54.784Z,99.80
2022-08-16T05:38:33.204Z,99.70
2022-08-16T05:41:09.457Z,99.70
2022-08-16T05:43:43.594Z,99.80
2022-08-16T05:46:30.362Z,99.80
2022-08-16T05:49:06.008Z,99.90
2022-08-16T05:51:38.669Z,99.80
2022-08-16T05:54:09.772Z,99.60
2022-08-16T05:56:40.204Z,99.40
2022-08-16T05:59:08.019Z,99.90
2022-08-16T06:01:38.321Z,99.90
2022-08-16T06:04:13.492Z,99.90
2022-08-16T06:06:56.601Z,99.90
2022-08-16T06:09:25.986Z,99.90
2022-08-16T06:12:27.005Z,99.90
2022-08-16T06:15:01.576Z,99.90
2022-08-16T06:17:42.532Z,99.90
2022-08-16T06:20:14.245Z,99.90
2022-08-16T06:22:44.667Z,99.90
2022-08-16T06:25:15.617Z,99.90
2022-08-16T06:27:57.167Z,99.90
2022-08-16T06:30:28.914Z,99.90
2022-08-16T06:32:56.993Z,99.90
2022-08-16T06:35:24.760Z,99.90
2022-08-16T06:37:52.546Z,99.90
2022-08-16T06:40:20.305Z,99.90
2022-08-16T06:42:48.501Z,99.90
2022-08-16T06:45:16.458Z,99.90
2022-08-16T06:47:53.103Z,99.90
2022-08-16T06:50:28.783Z,99.90
2022-08-16T06:53:08.608Z,99.90
2022-08-16T06:55:38.210Z,99.90
2022-08-16T06:58:08.124Z,99.90
2022-08-16T07:00:37.522Z,99.90
2022-08-16T07:03:26.432Z,99.90
2022-08-16T07:05:54.126Z,99.90
2022-08-16T07:08:23.501Z,99.90
2022-08-16T07:10:55.454Z,99.90
2022-08-16T07:13:55.040Z,99.90
2022-08-16T07:16:14.424Z,99.90
2022-08-16T07:18:59.134Z,99.90
2022-08-16T07:21:45.696Z,99.90
2022-08-16T07:24:30.111Z,99.90
2022-08-16T07:27:00.513Z,99.90
2022-08-16T07:29:31.768Z,99.90
2022-08-16T07:32:00.889Z,99.90
2022-08-16T07:34:35.677Z,99.90
2022-08-16T07:37:10.692Z,99.90
2022-08-16T07:39:43.273Z,99.90
2022-08-16T07:42:26.008Z,99.90
2022-08-16T07:44:59.975Z,99.90
2022-08-16T07:47:31.698Z,99.90
2022-08-16T07:50:05.512Z,99.90
2022-08-16T07:52:39.008Z,99.80
2022-08-16T07:55:07.484Z,99.40
2022-08-16T07:57:44.371Z,99.50
2022-08-16T08:00:26.560Z,99.50
2022-08-16T08:02:55.462Z,99.20
2022-08-16T08:05:35.669Z,99.00
2022-08-16T08:08:11.972Z,98.80
2022-08-16T08:10:53.302Z,98.70
2022-08-16T08:13:42.226Z,98.40
2022-08-16T08:16:18.476Z,98.20
2022-08-16T08:18:50.158Z,98.00
2022-08-16T08:21:27.383Z,97.80
2022-08-16T08:23:57.542Z,97.70
2022-08-16T08:26:26.163Z,97.60
2022-08-16T08:29:00.700Z,97.60
2022-08-16T08:31:29.312Z,97.50
2022-08-16T08:33:58.442Z,97.50
2022-08-16T08:36:33.141Z,97.40
2022-08-16T08:39:02.555Z,97.40
2022-08-16T08:41:42.344Z,97.30
2022-08-16T08:44:29.272Z,97.20
2022-08-16T08:47:05.636Z,97.20
2022-08-16T08:49:54.915Z,97.20
2022-08-16T08:52:34.316Z,97.10
2022-08-16T08:55:11.152Z,97.00
2022-08-16T08:57:41.943Z,97.00
2022-08-16T09:00:13.250Z,96.90
2022-08-16T09:02:44.384Z,96.90
2022-08-16T09:05:15.504Z,96.90
2022-08-16T09:08:00.298Z,96.80
2022-08-16T09:10:29.713Z,96.70
2022-08-16T09:12:58.698Z,96.60
2022-08-16T09:15:32.879Z,96.50
2022-08-16T09:18:25.174Z,96.50
2022-08-16T09:20:59.319Z,96.30
2022-08-16T09:23:27.967Z,96.10
2022-08-16T09:25:55.641Z,96.10
2022-08-16T09:29:15.960Z,96.00
2022-08-16T09:31:12.410Z,95.90
2022-08-16T09:33:40.593Z,95.40
2022-08-16T09:36:12.264Z,95.30
2022-08-16T09:38:59.976Z,95.20
2022-08-16T09:41:28.107Z,94.90
2022-08-16T09:43:59.450Z,94.70
2022-08-16T09:46:44.418Z,94.70
2022-08-16T09:49:13.352Z,94.70
2022-08-16T09:51:41.291Z,94.60
2022-08-16T09:54:10.614Z,94.40
2022-08-16T09:56:52.870Z,94.10
2022-08-16T09:59:22.373Z,93.90
2022-08-16T10:01:50.970Z,93.50
2022-08-16T10:04:30.461Z,93.20
2022-08-16T10:07:02.998Z,93.20
2022-08-16T10:09:54.080Z,92.70
2022-08-16T10:12:55.881Z,92.70
2022-08-16T10:15:25.232Z,92.30
2022-08-16T10:17:59.944Z,92.30
2022-08-16T10:20:35.132Z,91.90
2022-08-16T10:23:07.428Z,91.80
2022-08-16T10:27:16.723Z,91.20
2022-08-16T10:28:28.722Z,91.30
2022-08-16T10:30:59.445Z,91.00
2022-08-16T10:33:29.722Z,90.90
2022-08-16T10:36:03.827Z,90.80
2022-08-16T10:38:36.469Z,90.20
2022-08-16T10:41:07.142Z,90.20
2022-08-16T10:43:39.089Z,89.70
2022-08-16T10:46:39.878Z,90.00
2022-08-16T10:48:56.105Z,89.30
2022-08-16T10:51:33.350Z,88.30
2022-08-16T10:54:02.632Z,86.80
2022-08-16T10:56:51.511Z,86.80
2022-08-16T10:59:45.794Z,85.90
2022-08-16T11:02:58.968Z,85.40
2022-08-16T11:05:06.363Z,84.20
2022-08-16T11:07:43.771Z,83.90
2022-08-16T11:11:06.773Z,82.80
2022-08-16T11:15:55.592Z,82.10
2022-08-16T11:18:48.807Z,81.60
2022-08-16T11:21:29.379Z,79.50
2022-08-16T11:23:58.880Z,80.50
2022-08-16T11:26:27.833Z,79.70
2022-08-16T11:29:14.234Z,80.20
2022-08-16T11:31:45.544Z,80.70
2022-08-16T11:34:19.882Z,80.10
2022-08-16T11:36:59.415Z,80.40
2022-08-16T11:39:30.248Z,80.30
2022-08-16T11:41:59.565Z,79.70
2022-08-16T11:44:52.099Z,79.30
2022-08-16T11:47:14.850Z,80.70
2022-08-16T11:49:42.523Z,81.40
2022-08-16T11:52:10.410Z,80.10
2022-08-16T11:54:38.835Z,80.60
2022-08-16T11:57:09.382Z,80.50
2022-08-16T11:59:37.500Z,80.10
2022-08-16T12:02:32.173Z,80.40
2022-08-16T12:04:57.375Z,80.40
2022-08-16T12:07:25.188Z,80.20
2022-08-16T12:09:55.911Z,80.10
2022-08-16T12:12:24.403Z,79.90
2022-08-16T12:14:59.942Z,79.80
2022-08-16T12:17:31.711Z,79.30
2022-08-16T12:20:14.059Z,79.70
2022-08-16T12:22:47.148Z,79.10
2022-08-16T12:25:16.268Z,79.90
2022-08-16T12:27:46.372Z,78.60
2022-08-16T12:30:26.327Z,78.40
2022-08-16T12:32:57.707Z,78.00
2022-08-16T12:35:26.669Z,78.60
2022-08-16T12:37:57.237Z,77.80
2022-08-16T12:40:29.205Z,77.50
2022-08-16T12:42:59.643Z,77.30
2022-08-16T12:45:30.886Z,76.90
2022-08-16T12:48:32.964Z,75.50
2022-08-16T12:51:03.242Z,75.70
2022-08-16T12:53:32.087Z,75.10
2022-08-16T12:56:00.926Z,75.20
2022-08-16T12:58:49.637Z,73.80
2022-08-16T13:01:18.564Z,73.60
2022-08-16T13:03:46.346Z,73.40
2022-08-16T13:06:20.191Z,71.10
2022-08-16T13:08:58.367Z,71.80
2022-08-16T13:11:33.342Z,72.50
2022-08-16T13:14:01.018Z,71.60
2022-08-16T13:16:28.782Z,68.90
2022-08-16T13:18:56.478Z,69.40
2022-08-16T13:21:24.349Z,69.00
2022-08-16T13:23:55.500Z,68.50
2022-08-16T13:26:24.239Z,70.10
2022-08-16T13:28:54.343Z,68.10
2022-08-16T13:31:22.048Z,68.70
2022-08-16T13:33:51.997Z,68.50
2022-08-16T13:36:38.745Z,67.40
2022-08-16T13:39:10.626Z,64.30
2022-08-16T13:41:38.450Z,63.20
2022-08-16T13:44:09.129Z,66.10
2022-08-16T13:46:37.843Z,66.20
2022-08-16T13:49:06.777Z,64.60
2022-08-16T13:51:34.528Z,64.10
2022-08-16T13:54:04.385Z,66.40
2022-08-16T13:56:37.407Z,63.90
2022-08-16T13:59:19.668Z,63.30
2022-08-16T14:01:49.961Z,63.10
2022-08-16T14:04:26.078Z,64.80
2022-08-16T14:06:54.915Z,64.30
2022-08-16T14:09:24.936Z,64.40
2022-08-16T14:11:55.733Z,64.20
2022-08-16T14:14:29.192Z,63.90
2022-08-16T14:17:01.721Z,64.20
2022-08-16T14:19:30.298Z,64.10
2022-08-16T14:22:14.243Z,64.10
2022-08-16T14:24:45.093Z,64.90
2022-08-16T14:27:15.480Z,63.80
2022-08-16T14:29:43.638Z,63.20
2022-08-16T14:32:26.987Z,63.10
2022-08-16T14:35:00.282Z,64.90
2022-08-16T14:37:27.974Z,64.90
2022-08-16T14:39:59.143Z,65.10
2022-08-16T14:42:26.938Z,64.70
2022-08-16T14:44:54.945Z,65.10
2022-08-16T14:47:23.110Z,63.80
2022-08-16T14:49:52.346Z,65.00
2022-08-16T14:52:44.375Z,65.00
2022-08-16T14:55:09.714Z,66.10
2022-08-16T14:57:40.130Z,65.70
2022-08-16T15:00:11.405Z,66.90
2022-08-16T15:02:40.302Z,68.10
2022-08-16T15:05:09.976Z,66.60
2022-08-16T15:07:40.280Z,66.20
2022-08-16T15:10:21.583Z,67.20
2022-08-16T15:12:55.510Z,67.30
2022-08-16T15:15:24.855Z,67.00
2022-08-16T15:17:55.956Z,66.10
2022-08-16T15:20:26.654Z,66.10
2022-08-16T15:22:54.916Z,66.10
2022-08-16T15:25:29.375Z,66.40
2022-08-16T15:27:58.410Z,66.60
2022-08-16T15:30:56.460Z,66.50
2022-08-16T15:33:17.292Z,66.20
2022-08-16T15:35:46.399Z,66.40
2022-08-16T15:38:54.906Z,67.00
2022-08-16T15:41:02.950Z,67.50
2022-08-16T15:43:33.895Z,67.80
2022-08-16T15:46:35.733Z,68.20
2022-08-16T15:49:15.725Z,69.30
2022-08-16T15:51:45.776Z,69.00
2022-08-16T15:54:21.314Z,69.90
2022-08-16T15:57:04.244Z,68.40
2022-08-16T15:59:48.905Z,68.90
2022-08-16T16:02:29.182Z,68.10
2022-08-16T16:05:00.939Z,68.70
2022-08-16T16:07:30.536Z,68.60
2022-08-16T16:09:59.389Z,68.90
2022-08-16T16:12:50.867Z,68.10
2022-08-16T16:15:22.822Z,68.20
2022-08-16T16:17:52.581Z,69.20
2022-08-16T16:20:24.237Z,68.90
2022-08-16T16:22:56.063Z,69.00
2022-08-16T16:25:23.846Z,69.80
2022-08-16T16:27:59.246Z,69.20
2022-08-16T16:30:37.317Z,68.80
2022-08-16T16:33:21.213Z,69.10
2022-08-16T16:35:55.579Z,69.40
2022-08-16T16:38:30.394Z,69.30
2022-08-16T16:40:58.801Z,69.30
2022-08-16T16:43:31.526Z,69.90
2022-08-16T16:45:59.743Z,69.30
2022-08-16T16:48:34.529Z,69.60
2022-08-16T16:51:09.106Z,69.90
2022-08-16T16:53:38.217Z,70.20
2022-08-16T16:56:08.911Z,70.20
2022-08-16T16:59:01.114Z,69.00
2022-08-16T17:01:56.796Z,69.90
2022-08-16T17:04:23.887Z,69.60
2022-08-16T17:06:59.996Z,69.80
2022-08-16T17:09:27.682Z,70.00
2022-08-16T17:11:56.411Z,69.30
2022-08-16T17:14:33.458Z,69.40
2022-08-16T17:17:04.791Z,69.40
2022-08-16T17:19:32.888Z,69.20
2022-08-16T17:22:01.174Z,70.10
2022-08-16T17:24:39.418Z,70.00
2022-08-16T17:27:08.546Z,69.50
2022-08-16T17:29:42.751Z,69.90
2022-08-16T17:32:47.440Z,70.40
2022-08-16T17:35:08.555Z,70.20
2022-08-16T17:37:54.075Z,70.10
2022-08-16T17:40:46.031Z,70.40
2022-08-16T17:43:19.137Z,70.60
2022-08-16T17:45:47.010Z,70.70
2022-08-16T17:48:14.822Z,70.80
2022-08-16T17:50:45.312Z,71.00
2022-08-16T17:53:14.069Z,71.20
2022-08-16T17:55:43.817Z,71.40
2022-08-16T17:58:20.903Z,71.50
2022-08-16T18:00:52.067Z,71.60
2022-08-16T18:04:08.509Z,71.70
2022-08-16T18:06:13.560Z,71.80
2022-08-16T18:08:42.754Z,71.80
2022-08-16T18:11:12.684Z,71.80
2022-08-16T18:13:42.799Z,71.70
2022-08-16T18:16:10.612Z,72.10
2022-08-16T18:18:38.293Z,72.30
2022-08-16T18:21:23.657Z,72.30
2022-08-16T18:23:51.360Z,72.30
2022-08-16T18:26:19.022Z,72.30
2022-08-16T18:28:46.965Z,72.50
2022-08-16T18:31:14.670Z,72.80
2022-08-16T18:33:43.774Z,72.80
2022-08-16T18:36:21.226Z,73.00
2022-08-16T18:38:49.823Z,73.30
2022-08-16T18:41:17.801Z,73.60
2022-08-16T18:44:23.442Z,73.90
2022-08-16T18:46:33.098Z,74.20
2022-08-16T18:49:00.710Z,74.30
2022-08-16T18:51:28.386Z,74.40
2022-08-16T18:53:56.017Z,74.40
2022-08-16T18:56:23.722Z,74.70
2022-08-16T18:59:11.567Z,74.90
2022-08-16T19:01:39.650Z,75.00
2022-08-16T19:04:54.991Z,75.10
2022-08-16T19:06:55.368Z,75.10
2022-08-16T19:09:23.042Z,75.30
2022-08-16T19:11:50.982Z,75.40
2022-08-16T19:14:19.068Z,75.60
2022-08-16T19:16:47.391Z,76.10
2022-08-16T19:19:16.035Z,76.40
2022-08-16T19:21:44.059Z,76.30
2022-08-16T19:24:17.830Z,75.90
2022-08-16T19:26:46.431Z,75.70
2022-08-16T19:29:14.879Z,75.70
2022-08-16T19:31:42.521Z,75.50
2022-08-16T19:34:11.056Z,75.30
2022-08-16T19:36:39.547Z,75.10
2022-08-16T19:39:09.968Z,74.70
2022-08-16T19:41:42.548Z,74.60
2022-08-16T19:44:10.319Z,74.30
2022-08-16T19:46:41.568Z,74.10
2022-08-16T19:49:09.212Z,73.50
2022-08-16T19:51:37.819Z,73.50
2022-08-16T19:54:05.818Z,73.50
2022-08-16T19:56:33.464Z,73.60
2022-08-16T19:59:18.773Z,73.60
2022-08-16T20:01:49.180Z,73.70
2022-08-16T20:04:16.827Z,73.90
2022-08-16T20:06:44.492Z,74.10
2022-08-16T20:09:15.086Z,74.30
2022-08-16T20:11:44.193Z,74.60
2022-08-16T20:14:11.876Z,74.90
2022-08-16T20:16:52.919Z,75.20
2022-08-16T20:19:21.185Z,75.70
2022-08-16T20:21:49.990Z,75.80
2022-08-16T20:24:33.502Z,76.10
2022-08-16T20:27:02.749Z,76.20
2022-08-16T20:29:30.938Z,76.30
2022-08-16T20:31:58.614Z,76.40
2022-08-16T20:34:26.258Z,76.50
2022-08-16T20:36:54.122Z,76.50
2022-08-16T20:39:23.899Z,77.00
2022-08-16T20:41:51.727Z,76.40
2022-08-16T20:44:22.803Z,76.40
2022-08-16T20:46:52.577Z,76.30
2022-08-16T20:49:20.234Z,76.30
2022-08-16T20:51:50.581Z,76.40
2022-08-16T20:54:19.558Z,76.70
2022-08-16T20:56:47.296Z,77.30
2022-08-16T20:59:14.964Z,77.00
2022-08-16T21:01:46.794Z,77.20
2022-08-16T21:04:19.364Z,77.30
2022-08-16T21:06:53.012Z,77.40
2022-08-16T21:09:31.497Z,77.50
2022-08-16T21:12:00.754Z,77.50
2022-08-16T21:14:33.968Z,77.80
2022-08-16T21:17:02.625Z,78.10
2022-08-16T21:19:30.612Z,78.30
2022-08-16T21:21:58.237Z,78.70
2022-08-16T21:24:25.881Z,79.40
2022-08-16T21:26:56.157Z,79.90
2022-08-16T21:29:27.845Z,80.10
2022-08-16T21:32:09.401Z,80.40
2022-08-16T21:34:37.093Z,81.00
2022-08-16T21:37:04.794Z,81.20
2022-08-16T21:39:32.787Z,81.50
2022-08-16T21:42:01.945Z,81.50
2022-08-16T21:44:34.399Z,81.70
2022-08-16T21:47:06.841Z,82.00
2022-08-16T21:49:36.886Z,82.20
2022-08-16T21:52:05.426Z,82.50
2022-08-16T21:54:33.732Z,82.90
2022-08-16T21:57:01.344Z,83.80
2022-08-16T21:59:29.319Z,85.00
2022-08-16T22:01:57.014Z,84.20
2022-08-16T22:04:37.455Z,83.30
2022-08-16T22:07:06.506Z,82.80
2022-08-16T22:09:34.534Z,82.50
2022-08-16T22:12:02.119Z,82.80
2022-08-16T22:14:29.786Z,83.00
2022-08-16T22:16:57.390Z,83.10
2022-08-16T22:19:25.227Z,83.30
2022-08-16T22:21:52.867Z,83.40
2022-08-16T22:24:20.532Z,83.50
2022-08-16T22:26:48.376Z,83.60
2022-08-16T22:29:16.023Z,83.60
2022-08-16T22:31:44.394Z,83.70
2022-08-16T22:34:13.247Z,83.70
2022-08-16T22:36:41.216Z,83.80
2022-08-16T22:39:10.112Z,83.80
2022-08-16T22:41:38.360Z,83.80
2022-08-16T22:44:07.466Z,83.90
2022-08-16T22:46:36.409Z,83.80
2022-08-16T22:49:05.490Z,83.80
2022-08-16T22:51:33.140Z,83.80
2022-08-16T22:54:01.220Z,83.80
2022-08-16T22:56:48.794Z,83.90
2022-08-16T22:59:17.068Z,84.00
2022-08-16T23:01:44.912Z,84.00
2022-08-16T23:04:12.726Z,84.10
2022-08-16T23:06:40.373Z,84.20
2022-08-16T23:09:08.316Z,84.20
2022-08-16T23:11:35.912Z,84.30
2022-08-16T23:14:03.705Z,84.30
2022-08-16T23:16:34.505Z,84.50
2022-08-16T23:19:03.919Z,84.40
2022-08-16T23:21:32.257Z,84.60
2022-08-16T23:24:00.292Z,84.60
2022-08-16T23:26:44.874Z,84.60
2022-08-16T23:29:23.949Z,84.70
2022-08-16T23:31:54.865Z,84.80
2022-08-16T23:34:23.270Z,84.70
2022-08-16T23:36:50.970Z,84.80
2022-08-16T23:39:18.958Z,85.30
2022-08-16T23:41:46.634Z,84.90
2022-08-16T23:44:58.591Z,84.80
2022-08-16T23:47:01.958Z,84.80
2022-08-16T23:50:00.769Z,84.90
2022-08-16T23:52:19.067Z,85.00
2022-08-16T23:55:07.301Z,85.00
2022-08-16T23:57:34.975Z,85.00
